createdAt,value
2019-05-29T00:01:18.563Z,58.10
2019-05-29T00:11:20.834Z,58.10
2019-05-29T00:21:26.156Z,58.20
2019-05-29T00:31:31.684Z,58.20
2019-05-29T00:41:37.291Z,58.40
2019-05-29T00:51:42.671Z,59.20
2019-05-29T01:01:48.045Z,58.60
2019-05-29T01:11:53.436Z,58.70
2019-05-29T01:21:58.867Z,58.80
2019-05-29T01:32:04.238Z,58.80
2019-05-29T01:42:09.768Z,58.90
2019-05-29T01:52:15.492Z,58.80
2019-05-29T02:02:21.979Z,58.90
2019-05-29T02:12:27.849Z,59.00
2019-05-29T02:22:33.208Z,59.00
2019-05-29T02:32:38.567Z,59.00
2019-05-29T02:42:43.885Z,59.10
2019-05-29T02:52:49.191Z,59.10
2019-05-29T03:02:55.022Z,59.10
2019-05-29T03:13:00.360Z,59.20
2019-05-29T03:23:05.767Z,59.50
2019-05-29T03:33:11.075Z,59.30
2019-05-29T03:43:16.386Z,60.10
2019-05-29T03:53:22.048Z,59.40
2019-05-29T04:03:28.848Z,59.40
2019-05-29T04:13:35.995Z,59.40
2019-05-29T04:23:42.938Z,59.40
2019-05-29T04:33:48.207Z,59.40
2019-05-29T04:43:56.975Z,59.50
2019-05-29T04:54:00.565Z,59.70
2019-05-29T05:04:05.823Z,59.50
2019-05-29T05:14:11.450Z,59.40
2019-05-29T05:24:16.690Z,59.40
2019-05-29T05:34:21.943Z,59.40
2019-05-29T05:44:27.416Z,59.30
2019-05-29T05:54:33.391Z,59.90
2019-05-29T06:04:40.037Z,59.00
2019-05-29T06:14:45.508Z,58.90
2019-05-29T06:24:50.801Z,58.70
2019-05-29T06:34:56.071Z,59.00
2019-05-29T06:45:02.221Z,58.40
2019-05-29T06:55:08.859Z,58.10
2019-05-29T07:05:14.423Z,58.00
2019-05-29T07:15:19.729Z,57.80
2019-05-29T07:25:25.111Z,57.40
2019-05-29T07:35:30.460Z,57.00
2019-05-29T07:45:35.740Z,56.90
2019-05-29T07:55:41.038Z,56.70
2019-05-29T08:05:50.999Z,56.10
2019-05-29T08:16:02.326Z,55.40
2019-05-29T08:26:00.598Z,55.20
2019-05-29T08:36:06.028Z,54.80
2019-05-29T08:46:11.362Z,54.70
2019-05-29T08:56:17.460Z,54.10
2019-05-29T09:06:23.538Z,53.80
2019-05-29T09:16:28.950Z,53.40
2019-05-29T09:26:34.263Z,53.10
2019-05-29T09:36:39.526Z,52.80
2019-05-29T09:46:44.835Z,52.80
2019-05-29T09:56:50.204Z,51.80
2019-05-29T10:06:56.080Z,51.60
2019-05-29T10:17:09.159Z,51.00
2019-05-29T10:27:09.859Z,50.50
2019-05-29T10:37:18.076Z,49.10
2019-05-29T10:47:22.355Z,46.90
2019-05-29T10:57:27.658Z,45.80
2019-05-29T11:07:32.954Z,44.80
2019-05-29T11:17:38.275Z,44.00
2019-05-29T11:27:43.904Z,43.10
2019-05-29T11:37:50.392Z,42.10
2019-05-29T11:47:57.338Z,41.40
2019-05-29T11:58:03.280Z,41.10
2019-05-29T12:08:08.627Z,40.60
2019-05-29T12:18:23.614Z,39.80
2019-05-29T12:28:21.350Z,39.20
2019-05-29T12:38:26.907Z,38.40
2019-05-29T12:48:32.175Z,38.80
2019-05-29T12:58:37.490Z,39.40
2019-05-29T13:08:42.787Z,38.00
2019-05-29T13:18:48.103Z,38.00
2019-05-29T13:28:53.373Z,38.50
2019-05-29T13:39:00.109Z,38.40
2019-05-29T13:49:07.009Z,37.90
2019-05-29T13:59:12.654Z,39.00
2019-05-29T14:09:18.062Z,38.70
2019-05-29T14:19:23.411Z,38.80
2019-05-29T14:29:28.998Z,39.60
2019-05-29T14:39:34.282Z,39.20
2019-05-29T14:49:39.833Z,38.70
2019-05-29T14:59:45.241Z,38.80
2019-05-29T15:09:50.921Z,38.40
2019-05-29T15:19:56.272Z,38.50
2019-05-29T15:30:01.587Z,38.70
2019-05-29T15:40:08.790Z,39.20
2019-05-29T15:50:16.103Z,37.80
2019-05-29T16:00:21.591Z,38.30
2019-05-29T16:10:27.003Z,38.50
2019-05-29T16:20:32.393Z,38.70
2019-05-29T16:30:37.681Z,38.80
2019-05-29T16:40:43.195Z,38.70
2019-05-29T16:50:48.478Z,38.90
2019-05-29T17:00:54.078Z,39.10
2019-05-29T17:10:59.353Z,39.10
2019-05-29T17:21:04.741Z,39.00
2019-05-29T17:31:10.084Z,39.00
2019-05-29T17:41:17.183Z,39.00
2019-05-29T17:51:23.777Z,39.40
2019-05-29T18:01:30.852Z,39.40
2019-05-29T18:11:36.423Z,39.70
2019-05-29T18:21:41.776Z,40.00
2019-05-29T18:31:47.055Z,40.40
2019-05-29T18:41:52.908Z,40.70
2019-05-29T18:52:00.323Z,41.10
2019-05-29T19:02:05.327Z,41.40
2019-05-29T19:12:10.964Z,41.70
2019-05-29T19:22:16.429Z,42.00
2019-05-29T19:32:23.231Z,42.40
2019-05-29T19:42:28.617Z,43.00
2019-05-29T19:52:33.937Z,43.50
2019-05-29T20:02:39.565Z,43.90
2019-05-29T20:12:44.843Z,44.50
2019-05-29T20:22:50.082Z,45.00
2019-05-29T20:32:55.317Z,45.20
2019-05-29T20:43:00.558Z,45.70
2019-05-29T20:53:06.538Z,46.20
2019-05-29T21:03:12.019Z,46.70
2019-05-29T21:13:17.499Z,47.00
2019-05-29T21:23:22.768Z,47.20
2019-05-29T21:33:28.104Z,47.50
2019-05-29T21:43:33.337Z,47.70
2019-05-29T21:53:39.254Z,48.10
2019-05-29T22:03:46.465Z,48.40
2019-05-29T22:13:52.374Z,49.10
2019-05-29T22:23:57.863Z,49.20
2019-05-29T22:34:03.140Z,49.50
2019-05-29T22:44:08.496Z,49.70
2019-05-29T22:54:13.818Z,50.10
2019-05-29T23:04:19.114Z,50.40
2019-05-29T23:14:24.766Z,50.60
2019-05-29T23:24:30.095Z,50.80
2019-05-29T23:34:35.439Z,51.20
2019-05-29T23:44:41.262Z,51.20
2019-05-29T23:54:46.663Z,51.40
